createdAt,value
2018-11-14T00:00:27.361Z,521
2018-11-14T00:01:34.560Z,521
2018-11-14T00:02:41.216Z,521
2018-11-14T00:03:48.416Z,522
2018-11-14T00:04:55.614Z,520
2018-11-14T00:06:02.812Z,521
2018-11-14T00:07:10.017Z,521
2018-11-14T00:08:16.673Z,522
2018-11-14T00:09:23.746Z,519
2018-11-14T00:10:30.668Z,519
2018-11-14T00:11:37.585Z,519
2018-11-14T00:12:44.783Z,519
2018-11-14T00:13:51.433Z,519
2018-11-14T00:14:58.629Z,518
2018-11-14T00:16:05.551Z,517
2018-11-14T00:17:12.471Z,518
2018-11-14T00:18:19.671Z,516
2018-11-14T00:19:26.386Z,516
2018-11-14T00:20:33.306Z,517
2018-11-14T00:21:40.507Z,517
2018-11-14T00:22:47.430Z,516
2018-11-14T00:23:54.078Z,515
2018-11-14T00:25:01.001Z,516
2018-11-14T00:26:07.924Z,516
2018-11-14T00:27:15.125Z,516
2018-11-14T00:28:22.538Z,517
2018-11-14T00:29:31.153Z,517
2018-11-14T00:30:38.817Z,517
2018-11-14T00:31:45.746Z,516
2018-11-14T00:32:52.396Z,516
2018-11-14T00:33:59.314Z,517
2018-11-14T00:35:06.513Z,517
2018-11-14T00:36:13.713Z,517
2018-11-14T00:37:20.634Z,515
2018-11-14T00:38:27.836Z,515
2018-11-14T00:39:35.000Z,514
2018-11-14T00:40:41.379Z,514
2018-11-14T00:41:48.585Z,515
2018-11-14T00:42:55.788Z,514
2018-11-14T00:44:02.442Z,514
2018-11-14T00:45:08.821Z,512
2018-11-14T00:46:16.078Z,513
2018-11-14T00:47:23.265Z,513
2018-11-14T00:48:30.464Z,514
2018-11-14T00:49:37.659Z,513
2018-11-14T00:50:44.591Z,514
2018-11-14T00:51:51.783Z,514
2018-11-14T00:52:58.714Z,513
2018-11-14T00:54:05.645Z,512
2018-11-14T00:55:12.581Z,513
2018-11-14T00:56:19.779Z,511
2018-11-14T00:57:26.980Z,512
2018-11-14T00:58:34.180Z,509
2018-11-14T00:59:41.095Z,511
2018-11-14T01:00:48.291Z,511
2018-11-14T01:01:54.689Z,511
2018-11-14T01:03:01.892Z,511
2018-11-14T01:04:08.814Z,512
2018-11-14T01:05:16.106Z,513
2018-11-14T01:06:23.034Z,513
2018-11-14T01:07:29.961Z,512
2018-11-14T01:08:36.618Z,512
2018-11-14T01:09:43.820Z,511
2018-11-14T01:10:50.743Z,511
2018-11-14T01:11:57.942Z,512
2018-11-14T01:13:05.331Z,511
2018-11-14T01:14:12.366Z,511
2018-11-14T01:15:19.302Z,510
2018-11-14T01:16:26.500Z,511
2018-11-14T01:17:33.701Z,510
2018-11-14T01:18:40.633Z,511
2018-11-14T01:19:47.829Z,511
2018-11-14T01:20:55.030Z,510
2018-11-14T01:22:02.231Z,509
2018-11-14T01:23:08.607Z,510
2018-11-14T01:24:15.532Z,509
2018-11-14T01:25:22.734Z,508
2018-11-14T01:26:29.696Z,508
2018-11-14T01:27:36.620Z,508
2018-11-14T01:28:43.543Z,508
2018-11-14T01:29:50.749Z,506
2018-11-14T01:30:57.949Z,506
2018-11-14T01:32:05.142Z,507
2018-11-14T01:33:12.341Z,507
2018-11-14T01:34:19.540Z,506
2018-11-14T01:35:26.741Z,507
2018-11-14T01:36:33.934Z,507
2018-11-14T01:37:40.860Z,508
2018-11-14T01:38:47.780Z,507
2018-11-14T01:39:54.978Z,507
2018-11-14T01:41:01.371Z,508
2018-11-14T01:42:08.675Z,507
2018-11-14T01:43:15.604Z,507
2018-11-14T01:44:22.801Z,507
2018-11-14T01:45:29.729Z,505
2018-11-14T01:46:36.651Z,505
2018-11-14T23:00:07.118Z,352
2018-11-14T23:01:14.316Z,355
2018-11-14T23:02:21.516Z,354
2018-11-14T23:03:28.439Z,352
2018-11-14T23:04:35.639Z,351
2018-11-14T23:05:42.843Z,351
2018-11-14T23:06:50.051Z,350
2018-11-14T23:07:57.257Z,350
2018-11-14T23:09:04.475Z,349
2018-11-14T23:10:11.684Z,348
2018-11-14T23:11:18.885Z,349
2018-11-14T23:12:25.818Z,348
2018-11-14T23:13:32.743Z,348
2018-11-14T23:14:39.666Z,347
2018-11-14T23:15:46.726Z,346
2018-11-14T23:16:53.469Z,346
2018-11-14T23:18:00.670Z,346
2018-11-14T23:19:07.873Z,346
2018-11-14T23:20:15.063Z,346
2018-11-14T23:21:22.268Z,346
2018-11-14T23:22:28.927Z,346
2018-11-14T23:23:36.144Z,345
2018-11-14T23:24:42.787Z,345
2018-11-14T23:25:49.987Z,345
2018-11-14T23:26:56.634Z,345
2018-11-14T23:28:03.009Z,345
2018-11-14T23:29:10.205Z,345
2018-11-14T23:30:17.403Z,345
2018-11-14T23:31:24.601Z,345
2018-11-14T23:32:31.805Z,344
2018-11-14T23:33:39.003Z,345
2018-11-14T23:34:46.206Z,345
2018-11-14T23:35:53.410Z,345
2018-11-14T23:37:00.606Z,345
2018-11-14T23:38:07.805Z,345
2018-11-14T23:39:14.722Z,345
2018-11-14T23:40:21.370Z,345
2018-11-14T23:41:28.567Z,344
2018-11-14T23:42:35.769Z,344
2018-11-14T23:43:42.967Z,344
2018-11-14T23:44:49.336Z,344
2018-11-14T23:45:55.994Z,344
2018-11-14T23:47:03.194Z,344
2018-11-14T23:48:10.120Z,344
2018-11-14T23:49:17.045Z,344
2018-11-14T23:50:24.243Z,345
2018-11-14T23:51:31.165Z,344
2018-11-14T23:52:38.364Z,344
2018-11-14T23:53:45.294Z,344
2018-11-14T23:54:51.961Z,344
2018-11-14T23:55:58.621Z,344
2018-11-14T23:57:05.812Z,344
2018-11-14T23:58:13.015Z,343
2018-11-14T23:59:19.678Z,344
